createdAt,value
2022-12-04T00:02:22.902Z,133.40
2022-12-04T00:05:14.443Z,116.78
2022-12-04T00:08:01.237Z,119.22
2022-12-04T00:10:47.935Z,118.68
2022-12-04T00:13:36.357Z,117.68
2022-12-04T00:16:25.661Z,112.25
2022-12-04T00:19:14.305Z,121.95
2022-12-04T00:22:00.349Z,124.00
2022-12-04T00:24:46.813Z,116.78
2022-12-04T00:27:33.409Z,108.32
2022-12-04T00:30:19.969Z,111.40
2022-12-04T00:33:06.706Z,123.78
2022-12-04T00:36:01.915Z,111.45
2022-12-04T00:38:48.807Z,113.15
2022-12-04T00:41:36.279Z,110.03
2022-12-04T00:44:22.998Z,125.70
2022-12-04T00:47:10.088Z,125.55
2022-12-04T00:49:56.822Z,119.00
2022-12-04T00:52:43.805Z,117.13
2022-12-04T00:55:30.691Z,100.80
2022-12-04T00:58:17.545Z,113.72
2022-12-04T01:01:12.654Z,100.45
2022-12-04T01:03:59.752Z,108.75
2022-12-04T01:06:47.187Z,114.43
2022-12-04T01:09:34.398Z,110.88
2022-12-04T01:12:21.229Z,120.97
2022-12-04T01:15:09.118Z,113.35
2022-12-04T01:17:55.643Z,121.50
2022-12-04T01:20:51.717Z,113.97
2022-12-04T01:23:38.333Z,107.95
2022-12-04T01:26:25.782Z,115.57
2022-12-04T01:29:12.332Z,106.55
2022-12-04T01:31:59.399Z,106.03
2022-12-04T01:34:46.003Z,107.35
2022-12-04T01:37:32.641Z,106.57
2022-12-04T01:40:22.172Z,124.75
2022-12-04T01:43:12.843Z,100.85
2022-12-04T01:46:00.576Z,111.32
2022-12-04T01:48:52.931Z,109.88
2022-12-04T01:51:47.038Z,109.95
2022-12-04T01:54:41.463Z,111.45
2022-12-04T01:57:30.140Z,146.18
2022-12-04T02:00:18.167Z,124.50
2022-12-04T02:03:04.699Z,115.18
2022-12-04T02:05:51.734Z,122.97
2022-12-04T02:08:38.811Z,119.40
2022-12-04T02:11:44.011Z,121.28
2022-12-04T02:14:46.983Z,118.20
2022-12-04T02:17:48.137Z,122.18
2022-12-04T02:20:41.441Z,123.00
2022-12-04T02:23:43.447Z,142.85
2022-12-04T02:26:41.997Z,129.27
2022-12-04T02:29:35.465Z,138.15
2022-12-04T02:32:30.541Z,120.60
2022-12-04T02:35:34.066Z,130.13
2022-12-04T02:38:24.188Z,123.82
2022-12-04T02:41:47.995Z,133.52
2022-12-04T02:44:45.882Z,125.20
2022-12-04T02:47:33.759Z,119.20
2022-12-04T02:50:24.814Z,152.07
2022-12-04T02:53:21.452Z,124.93
2022-12-04T02:56:21.286Z,127.03
2022-12-04T02:59:16.930Z,111.60
2022-12-04T03:02:20.372Z,133.27
2022-12-04T03:05:11.555Z,121.32
2022-12-04T03:08:04.786Z,122.33
2022-12-04T03:10:54.015Z,121.63
2022-12-04T03:13:44.911Z,150.40
2022-12-04T03:16:33.869Z,128.77
2022-12-04T03:19:24.446Z,133.55
2022-12-04T03:22:13.598Z,118.38
2022-12-04T03:25:03.864Z,126.90
2022-12-04T03:28:07.795Z,120.35
2022-12-04T03:30:59.966Z,126.97
2022-12-04T03:33:48.051Z,115.72
2022-12-04T03:36:38.240Z,107.85
2022-12-04T03:39:28.865Z,125.45
2022-12-04T03:42:33.599Z,102.07
2022-12-04T03:45:40.224Z,117.93
2022-12-04T03:48:32.249Z,98.22
2022-12-04T03:51:26.965Z,112.47
2022-12-04T03:54:15.490Z,119.15
2022-12-04T03:57:14.933Z,101.20
2022-12-04T04:00:16.300Z,115.63
2022-12-04T04:03:11.720Z,107.85
2022-12-04T04:06:21.643Z,104.25
2022-12-04T04:09:12.721Z,101.40
2022-12-04T04:12:08.175Z,101.18
2022-12-04T04:15:20.529Z,99.07
2022-12-04T04:18:25.825Z,104.72
2022-12-04T04:21:39.172Z,101.45
2022-12-04T04:24:51.846Z,95.00
2022-12-04T04:27:38.783Z,95.07
2022-12-04T04:30:26.443Z,98.10
2022-12-04T04:33:16.898Z,93.68
2022-12-04T04:36:10.002Z,96.22
2022-12-04T04:39:08.274Z,88.55
2022-12-04T04:42:31.139Z,91.57
2022-12-04T04:45:28.700Z,84.53
2022-12-04T04:48:24.298Z,94.68
2022-12-04T04:51:11.081Z,94.40
2022-12-04T04:53:59.788Z,92.72
2022-12-04T04:56:47.856Z,94.68
2022-12-04T04:59:34.767Z,93.53
2022-12-04T05:02:21.901Z,90.85
2022-12-04T05:05:09.157Z,93.43
2022-12-04T05:07:55.933Z,70.60
2022-12-04T05:10:47.685Z,85.80
2022-12-04T05:13:35.228Z,76.22
2022-12-04T05:16:21.915Z,81.47
2022-12-04T05:19:27.191Z,85.25
2022-12-04T05:22:13.857Z,93.00
2022-12-04T05:25:01.431Z,83.65
2022-12-04T05:27:51.013Z,91.07
2022-12-04T05:30:37.579Z,78.85
2022-12-04T05:33:24.532Z,77.15
2022-12-04T05:36:11.497Z,70.68
2022-12-04T05:39:01.010Z,75.68
2022-12-04T05:41:48.343Z,77.63
2022-12-04T05:44:34.937Z,75.53
2022-12-04T05:47:21.256Z,81.78
2022-12-04T05:50:08.725Z,90.72
2022-12-04T05:52:55.500Z,68.93
2022-12-04T05:55:41.589Z,62.55
2022-12-04T05:58:28.891Z,69.55
2022-12-04T06:01:18.449Z,68.25
2022-12-04T06:04:05.392Z,66.65
2022-12-04T06:06:53.685Z,72.32
2022-12-04T06:09:40.427Z,70.80
2022-12-04T06:12:26.557Z,61.65
2022-12-04T06:15:13.501Z,58.75
2022-12-04T06:17:59.755Z,65.63
2022-12-04T06:20:46.887Z,60.10
2022-12-04T06:23:33.824Z,63.33
2022-12-04T06:26:21.200Z,56.97
2022-12-04T06:29:07.702Z,58.30
2022-12-04T06:31:54.738Z,59.53
2022-12-04T06:34:44.151Z,63.25
2022-12-04T06:37:34.182Z,65.00
2022-12-04T06:40:20.605Z,59.75
2022-12-04T06:43:07.494Z,62.38
2022-12-04T06:46:13.835Z,60.58
2022-12-04T06:49:02.612Z,57.03
2022-12-04T06:51:49.509Z,83.38
2022-12-04T06:54:36.589Z,68.07
2022-12-04T06:57:22.709Z,65.07
2022-12-04T07:00:09.977Z,57.40
2022-12-04T07:02:56.377Z,61.70
2022-12-04T07:05:42.907Z,60.10
2022-12-04T07:08:28.995Z,69.45
2022-12-04T07:11:17.050Z,72.57
2022-12-04T07:14:04.946Z,75.82
2022-12-04T07:16:52.045Z,63.33
2022-12-04T07:19:38.902Z,74.10
2022-12-04T07:22:25.478Z,83.40
2022-12-04T07:25:12.307Z,73.57
2022-12-04T07:28:01.155Z,75.63
2022-12-04T07:30:47.413Z,90.88
2022-12-04T07:33:34.444Z,100.57
2022-12-04T07:36:21.565Z,81.20
2022-12-04T07:39:08.563Z,78.93
2022-12-04T07:41:55.158Z,103.10
2022-12-04T07:44:41.847Z,86.88
2022-12-04T07:47:30.854Z,89.07
2022-12-04T07:50:17.664Z,83.75
2022-12-04T07:53:04.161Z,77.25
2022-12-04T07:55:54.497Z,95.50
2022-12-04T07:58:41.885Z,72.13
2022-12-04T08:01:29.005Z,83.13
2022-12-04T08:04:15.530Z,77.95
2022-12-04T08:07:02.634Z,72.03
2022-12-04T08:09:48.897Z,70.05
2022-12-04T08:12:36.410Z,84.90
2022-12-04T08:15:22.537Z,77.38
2022-12-04T08:18:09.480Z,77.95
2022-12-04T08:21:03.375Z,76.80
2022-12-04T08:23:52.039Z,82.85
2022-12-04T08:26:38.517Z,84.35
2022-12-04T08:29:25.574Z,68.63
2022-12-04T08:32:12.487Z,74.10
2022-12-04T08:34:59.448Z,70.15
2022-12-04T08:37:46.222Z,70.45
2022-12-04T08:40:33.438Z,71.80
2022-12-04T08:43:20.115Z,73.30
2022-12-04T08:46:09.257Z,74.68
2022-12-04T08:48:56.398Z,71.95
2022-12-04T08:51:43.356Z,75.95
2022-12-04T08:54:39.400Z,73.95
2022-12-04T08:57:26.321Z,85.18
2022-12-04T09:00:13.149Z,69.18
2022-12-04T09:02:59.883Z,81.15
2022-12-04T09:05:48.957Z,71.63
2022-12-04T09:08:38.656Z,59.30
2022-12-04T09:11:28.668Z,75.38
2022-12-04T09:14:16.755Z,68.65
2022-12-04T09:17:03.711Z,71.13
2022-12-04T09:19:51.128Z,66.72
2022-12-04T09:23:02.059Z,65.65
2022-12-04T09:25:46.099Z,70.10
2022-12-04T09:28:35.987Z,72.28
2022-12-04T09:31:24.073Z,69.07
2022-12-04T09:34:10.991Z,64.85
2022-12-04T09:37:01.404Z,66.38
2022-12-04T09:39:48.119Z,66.63
2022-12-04T09:42:50.116Z,66.30
2022-12-04T09:45:48.196Z,69.90
2022-12-04T09:48:38.156Z,70.72
2022-12-04T09:51:26.490Z,75.95
2022-12-04T09:54:28.955Z,69.72
2022-12-04T09:57:26.873Z,83.75
2022-12-04T10:00:20.294Z,113.53
2022-12-04T10:03:14.465Z,67.47
2022-12-04T10:06:15.078Z,71.95
2022-12-04T10:09:18.777Z,74.88
2022-12-04T10:12:24.283Z,82.13
2022-12-04T10:15:29.359Z,77.05
2022-12-04T10:18:23.565Z,85.03
2022-12-04T10:21:16.572Z,84.97
2022-12-04T10:24:15.314Z,80.50
2022-12-04T10:27:10.443Z,98.97
2022-12-04T10:30:22.384Z,87.30
2022-12-04T10:33:39.202Z,77.55
2022-12-04T10:36:30.178Z,76.72
2022-12-04T10:39:24.457Z,87.90
2022-12-04T10:42:29.737Z,79.65
2022-12-04T10:45:16.461Z,86.90
2022-12-04T10:48:12.612Z,88.32
2022-12-04T10:51:02.326Z,87.15
2022-12-04T10:53:52.443Z,94.32
2022-12-04T10:56:59.331Z,99.40
2022-12-04T11:00:00.459Z,94.65
2022-12-04T11:02:49.737Z,101.28
2022-12-04T11:05:42.485Z,110.20
2022-12-04T11:08:43.630Z,92.40
2022-12-04T11:11:36.569Z,86.00
2022-12-04T11:14:23.762Z,90.75
2022-12-04T11:17:19.775Z,81.25
2022-12-04T11:20:13.750Z,88.65
2022-12-04T11:23:00.949Z,90.03
2022-12-04T11:25:52.705Z,125.30
2022-12-04T11:28:44.061Z,86.72
2022-12-04T11:31:34.502Z,108.03
2022-12-04T11:34:23.538Z,86.55
2022-12-04T11:37:22.035Z,92.72
2022-12-04T11:40:20.685Z,95.70
2022-12-04T11:43:17.946Z,90.55
2022-12-04T11:46:07.483Z,98.85
2022-12-04T11:48:55.498Z,123.15
2022-12-04T11:52:05.841Z,107.82
2022-12-04T11:55:02.699Z,84.38
2022-12-04T11:58:00.578Z,85.07
2022-12-04T12:01:26.020Z,88.07
2022-12-04T12:04:34.285Z,116.35
2022-12-04T12:07:33.266Z,106.55
2022-12-04T12:10:44.822Z,95.50
2022-12-04T12:13:53.307Z,85.00
2022-12-04T12:16:49.970Z,88.97
2022-12-04T12:20:30.073Z,97.30
2022-12-04T12:23:51.937Z,96.43
2022-12-04T12:27:04.018Z,95.32
2022-12-04T12:30:18.746Z,92.95
2022-12-04T12:33:24.285Z,102.28
2022-12-04T12:36:22.215Z,107.97
2022-12-04T12:39:41.400Z,102.13
2022-12-04T12:42:58.181Z,117.03
2022-12-04T12:45:57.691Z,112.82
2022-12-04T12:48:58.183Z,97.03
2022-12-04T12:52:05.575Z,107.95
2022-12-04T12:55:04.009Z,102.25
2022-12-04T12:58:02.578Z,93.20
2022-12-04T13:01:31.476Z,113.55
2022-12-04T13:04:29.315Z,101.45
2022-12-04T13:07:24.332Z,106.05
2022-12-04T13:10:22.350Z,110.15
2022-12-04T13:17:48.346Z,91.93
2022-12-04T13:20:54.576Z,99.50
2022-12-04T13:24:04.729Z,102.30
2022-12-04T13:27:01.338Z,123.38
2022-12-04T13:30:06.624Z,119.40
2022-12-04T13:33:23.274Z,135.95
2022-12-04T13:36:34.056Z,109.85
2022-12-04T13:39:30.555Z,139.00
2022-12-04T13:42:29.777Z,107.03
2022-12-04T13:45:29.333Z,115.15
2022-12-04T13:48:38.713Z,106.15
2022-12-04T13:51:52.646Z,91.93
2022-12-04T13:54:43.927Z,103.22
2022-12-04T13:57:34.648Z,99.15
2022-12-04T14:00:36.301Z,95.63
2022-12-04T14:03:32.959Z,104.65
2022-12-04T14:06:25.799Z,102.20
2022-12-04T14:09:26.244Z,109.75
2022-12-04T14:12:17.868Z,151.38
2022-12-04T14:15:25.051Z,120.25
2022-12-04T14:18:13.529Z,98.53
2022-12-04T14:21:05.049Z,123.28
2022-12-04T14:23:53.326Z,168.13
2022-12-04T14:27:10.814Z,124.90
2022-12-04T14:30:01.328Z,107.25
2022-12-04T14:32:55.183Z,102.50
2022-12-04T14:36:09.531Z,99.10
2022-12-04T14:42:25.831Z,114.15
2022-12-04T14:45:46.104Z,147.05
2022-12-04T14:49:05.185Z,126.88
2022-12-04T14:52:07.510Z,103.65
2022-12-04T14:55:15.543Z,107.00
2022-12-04T14:58:39.490Z,144.00
2022-12-04T15:01:36.502Z,119.13
2022-12-04T15:04:54.708Z,133.50
2022-12-04T15:07:57.727Z,137.80
2022-12-04T15:11:13.060Z,98.32
2022-12-04T15:19:36.774Z,98.90
2022-12-04T15:23:04.624Z,106.13
2022-12-04T15:35:07.707Z,110.55
2022-12-04T15:42:30.363Z,164.63
2022-12-04T15:45:22.338Z,119.82
2022-12-04T15:48:09.307Z,107.72
2022-12-04T15:51:01.418Z,85.45
2022-12-04T15:53:48.474Z,109.57
2022-12-04T15:56:35.247Z,84.72
2022-12-04T15:59:22.545Z,107.45
2022-12-04T16:02:25.446Z,102.55
2022-12-04T16:05:35.037Z,112.45
2022-12-04T16:08:29.773Z,92.68
2022-12-04T16:11:16.708Z,110.47
2022-12-04T16:14:09.554Z,102.80
2022-12-04T16:17:06.182Z,86.00
2022-12-04T16:19:56.178Z,104.95
2022-12-04T16:22:44.569Z,99.32
2022-12-04T16:25:32.004Z,108.43
2022-12-04T16:28:20.306Z,104.90
2022-12-04T16:31:07.694Z,101.68
2022-12-04T16:33:54.767Z,102.20
2022-12-04T16:36:44.535Z,90.57
2022-12-04T16:39:41.303Z,111.72
2022-12-04T16:42:29.682Z,113.75
2022-12-04T16:45:29.611Z,107.57
2022-12-04T16:48:16.453Z,115.72
2022-12-04T16:51:03.835Z,88.70
2022-12-04T16:53:53.520Z,111.38
2022-12-04T16:56:42.233Z,112.40
2022-12-04T16:59:29.429Z,100.75
2022-12-04T17:02:23.781Z,95.28
2022-12-04T17:05:31.914Z,108.10
2022-12-04T17:08:29.970Z,122.80
2022-12-04T17:11:21.528Z,133.73
2022-12-04T17:14:11.601Z,127.35
2022-12-04T17:17:01.475Z,112.07
2022-12-04T17:19:48.773Z,116.20
2022-12-04T17:22:36.257Z,108.85
2022-12-04T17:25:27.012Z,109.25
2022-12-04T17:28:13.655Z,93.97
2022-12-04T17:31:02.796Z,106.53
2022-12-04T17:33:49.894Z,103.45
2022-12-04T17:36:40.160Z,116.20
2022-12-04T17:39:28.326Z,108.57
2022-12-04T17:42:17.044Z,99.85
2022-12-04T17:45:03.980Z,105.53
2022-12-04T17:47:53.535Z,145.80
2022-12-04T17:50:45.859Z,121.18
2022-12-04T17:53:35.999Z,114.30
2022-12-04T17:56:26.313Z,121.30
2022-12-04T17:59:16.236Z,98.43
2022-12-04T18:02:04.952Z,106.95
2022-12-04T18:04:55.816Z,96.13
2022-12-04T18:08:09.232Z,99.72
2022-12-04T18:10:57.519Z,99.72
2022-12-04T18:13:46.887Z,102.57
2022-12-04T18:16:38.479Z,106.85
2022-12-04T18:19:30.075Z,102.07
2022-12-04T18:22:28.195Z,82.55
2022-12-04T18:25:27.245Z,93.20
2022-12-04T18:28:19.150Z,110.90
2022-12-04T18:31:07.175Z,117.63
2022-12-04T18:33:57.274Z,111.65
2022-12-04T18:36:47.284Z,106.40
2022-12-04T18:39:40.280Z,137.55
2022-12-04T18:42:32.431Z,146.50
2022-12-04T18:45:22.538Z,105.50
2022-12-04T18:48:09.430Z,94.72
2022-12-04T18:51:01.529Z,89.65
2022-12-04T18:54:01.752Z,83.50
2022-12-04T18:56:51.652Z,86.72
2022-12-04T18:59:39.409Z,100.70
2022-12-04T19:02:26.631Z,93.15
2022-12-04T19:05:14.339Z,90.13
2022-12-04T19:08:03.982Z,80.78
2022-12-04T19:10:53.935Z,101.97
2022-12-04T19:13:41.488Z,95.45
2022-12-04T19:16:31.667Z,94.22
2022-12-04T19:19:23.721Z,79.65
2022-12-04T19:22:11.846Z,107.15
2022-12-04T19:24:58.743Z,102.15
2022-12-04T19:27:45.808Z,89.43
2022-12-04T19:30:34.557Z,94.20
2022-12-04T19:33:21.654Z,98.53
2022-12-04T19:36:08.901Z,93.18
2022-12-04T19:39:02.826Z,83.97
2022-12-04T19:41:53.028Z,93.70
2022-12-04T19:44:48.335Z,86.90
2022-12-04T19:47:39.809Z,94.28
2022-12-04T19:50:31.885Z,89.22
2022-12-04T19:53:19.013Z,90.72
2022-12-04T19:56:12.865Z,90.78
2022-12-04T19:59:03.488Z,86.63
2022-12-04T20:01:50.779Z,86.03
2022-12-04T20:04:40.976Z,86.80
2022-12-04T20:07:27.704Z,82.50
2022-12-04T20:10:14.882Z,81.88
2022-12-04T20:13:01.749Z,86.75
2022-12-04T20:15:48.931Z,84.30
2022-12-04T20:18:44.045Z,77.38
2022-12-04T20:21:43.290Z,79.40
2022-12-04T20:24:30.360Z,78.03
2022-12-04T20:27:19.839Z,75.90
2022-12-04T20:30:10.069Z,83.88
2022-12-04T20:33:00.616Z,71.93
2022-12-04T20:35:52.001Z,74.60
2022-12-04T20:38:41.252Z,76.43
2022-12-04T20:41:30.094Z,70.60
2022-12-04T20:44:26.957Z,74.72
2022-12-04T20:47:16.529Z,85.35
2022-12-04T20:50:05.945Z,68.97
2022-12-04T20:53:02.495Z,78.18
2022-12-04T20:55:55.327Z,70.18
2022-12-04T20:58:42.410Z,78.03
2022-12-04T21:01:33.754Z,71.57
2022-12-04T21:04:23.859Z,72.60
2022-12-04T21:07:10.640Z,72.07
2022-12-04T21:09:59.541Z,77.78
2022-12-04T21:13:04.843Z,92.60
2022-12-04T21:16:05.629Z,88.13
2022-12-04T21:18:52.466Z,80.63
2022-12-04T21:21:43.990Z,81.07
2022-12-04T21:24:38.569Z,73.32
2022-12-04T21:27:25.355Z,88.60
2022-12-04T21:30:15.065Z,87.28
2022-12-04T21:33:04.809Z,77.75
2022-12-04T21:35:51.611Z,77.72
2022-12-04T21:38:38.955Z,74.95
2022-12-04T21:41:45.192Z,76.22
2022-12-04T21:44:31.326Z,84.32
2022-12-04T21:47:18.783Z,79.25
2022-12-04T21:50:08.753Z,73.57
2022-12-04T21:52:56.609Z,70.55
2022-12-04T21:55:54.063Z,78.10
2022-12-04T21:58:43.142Z,89.95
2022-12-04T22:01:33.908Z,65.63
2022-12-04T22:04:24.307Z,72.13
2022-12-04T22:07:14.368Z,64.07
2022-12-04T22:10:05.453Z,71.20
2022-12-04T22:12:55.176Z,77.75
2022-12-04T22:15:48.459Z,71.32
2022-12-04T22:18:35.381Z,78.30
2022-12-04T22:21:22.517Z,71.00
2022-12-04T22:24:10.611Z,77.40
2022-12-04T22:26:57.279Z,69.45
2022-12-04T22:30:01.423Z,64.18
2022-12-04T22:32:50.777Z,79.57
2022-12-04T22:35:39.083Z,65.65
2022-12-04T22:38:26.001Z,92.28
2022-12-04T22:41:17.942Z,67.25
2022-12-04T22:44:04.794Z,67.57
2022-12-04T22:46:52.509Z,66.97
2022-12-04T22:49:39.516Z,70.18
2022-12-04T22:52:26.268Z,62.08
2022-12-04T22:55:13.351Z,60.88
2022-12-04T22:57:59.567Z,69.80
2022-12-04T23:00:46.313Z,66.72
2022-12-04T23:03:32.993Z,70.28
2022-12-04T23:06:21.419Z,65.28
2022-12-04T23:09:11.876Z,63.55
2022-12-04T23:11:58.495Z,60.10
2022-12-04T23:14:44.819Z,68.45
2022-12-04T23:17:31.476Z,67.85
2022-12-04T23:20:18.181Z,70.10
2022-12-04T23:23:05.216Z,64.10
2022-12-04T23:25:51.861Z,64.32
2022-12-04T23:28:38.589Z,66.03
2022-12-04T23:31:28.642Z,68.25
2022-12-04T23:34:15.410Z,58.63
2022-12-04T23:37:02.098Z,64.13
2022-12-04T23:39:48.740Z,71.78
2022-12-04T23:42:35.111Z,66.22
2022-12-04T23:45:24.266Z,64.38
2022-12-04T23:48:11.136Z,61.95
2022-12-04T23:50:57.892Z,66.38
2022-12-04T23:53:44.759Z,58.53
2022-12-04T23:56:32.764Z,67.22
2022-12-04T23:59:19.279Z,63.60
